Time;durP1;ratioP1;P1;durP2;ratioP2;P2;SDS_P1;SDS_P2;PMS_P1;PMS_P2;Temp;Humidity;BMP_temperature;BMP_pressure;BME280_temperature;BME280_humidity;BME280_pressure;Samples;Min_cycle;Max_cycle;Signal;HPM_P1;HPM_P2
2023/01/04 00:01:18;;;;;;;;;;;;;;;13.88;100.00;100938.31;7364910;19;20487;-66
2023/01/04 00:03:45;;;;;;;;;;;;;;;13.89;99.99;100929.38;7368000;19;19926;-67
2023/01/04 00:06:13;;;;;;;;;;;;;;;13.90;99.75;100929.22;7358566;19;20357;-66
2023/01/04 00:08:40;;;;;;;;;;;;;;;13.89;99.59;100930.19;7359881;19;19958;-67
2023/01/04 00:11:11;;;;;;;;;;;;;;;13.91;99.52;100930.88;7354449;19;19926;-68
2023/01/04 00:13:38;;;;;;;;;;;;;;;13.93;99.32;100928.84;7357386;19;19947;-67
2023/01/04 00:16:07;;;;;;;;;;;;;;;13.93;98.99;100920.09;7358450;19;19910;-67
2023/01/04 00:18:35;;;;;;;;;;;;;;;13.91;98.78;100932.69;7359918;19;20698;-67
2023/01/04 00:21:06;;;;;;;;;;;;;;;13.91;98.48;100933.50;7356534;19;20014;-67
2023/01/04 00:23:33;;;;;;;;;;;;;;;13.90;98.09;100929.22;7356703;19;19947;-67
2023/01/04 00:26:00;;;;;;;;;;;;;;;13.92;97.88;100942.25;7359830;19;19943;-68
2023/01/04 00:28:27;;;;;;;;;;;;;;;13.93;97.76;100949.19;7358539;19;19931;-67
2023/01/04 00:30:53;;;;;;;;;;;;;;;13.92;97.40;100948.38;7357383;19;19986;-67
2023/01/04 00:33:20;;;;;;;;;;;;;;;13.92;97.12;100942.25;7358989;19;20099;-68
2023/01/04 00:35:47;;;;;;;;;;;;;;;13.94;97.15;100937.63;7353926;19;19999;-68
2023/01/04 00:38:14;;;;;;;;;;;;;;;13.94;96.68;100946.38;7358847;19;20012;-67
2023/01/04 00:40:41;;;;;;;;;;;;;;;13.96;96.65;100933.81;7360382;19;19926;-67
2023/01/04 00:43:08;;;;;;;;;;;;;;;13.94;96.53;100949.03;7358991;19;19931;-67
2023/01/04 00:45:35;;;;;;;;;;;;;;;13.95;96.25;100939.28;7358427;19;19944;-67
2023/01/04 00:48:02;;;;;;;;;;;;;;;13.95;96.17;100931.34;7359219;19;19947;-67
2023/01/04 00:50:29;;;;;;;;;;;;;;;13.95;96.16;100928.69;7354753;19;19940;-67
2023/01/04 00:52:55;;;;;;;;;;;;;;;13.96;96.00;100928.53;7356568;19;19951;-66
2023/01/04 00:55:22;;;;;;;;;;;;;;;13.98;95.88;100929.16;7357331;19;20289;-68
2023/01/04 00:57:49;;;;;;;;;;;;;;;13.96;95.68;100920.59;7361418;19;19943;-69
2023/01/04 01:00:16;;;;;;;;;;;;;;;13.97;96.04;100911.63;7359920;19;19979;-68
2023/01/04 01:02:43;;;;;;;;;;;;;;;14.00;95.89;100910.47;7358274;19;19968;-67
2023/01/04 01:05:10;;;;;;;;;;;;;;;14.01;95.61;100912.97;7357948;19;19947;-67
2023/01/04 01:07:37;;;;;;;;;;;;;;;14.02;95.31;100909.28;7355143;19;20223;-67
2023/01/04 01:10:05;;;;;;;;;;;;;;;14.01;95.38;100901.56;7354186;19;19956;-68
2023/01/04 01:12:32;;;;;;;;;;;;;;;13.96;95.25;100904.72;7357027;19;20782;-67
2023/01/04 01:14:58;;;;;;;;;;;;;;;13.98;95.24;100923.03;7356940;19;20367;-68
2023/01/04 01:17:26;;;;;;;;;;;;;;;13.97;95.40;100897.56;7356683;19;19927;-67
2023/01/04 01:19:53;;;;;;;;;;;;;;;13.97;95.49;100898.41;7355138;19;19926;-67
2023/01/04 01:22:20;;;;;;;;;;;;;;;13.97;95.71;100910.81;7356062;19;20197;-68
2023/01/04 01:24:47;;;;;;;;;;;;;;;13.94;95.39;100919.09;7355606;19;20324;-66
2023/01/04 01:27:14;;;;;;;;;;;;;;;13.93;95.58;100915.63;7356752;19;19968;-67
2023/01/04 01:29:40;;;;;;;;;;;;;;;13.95;95.86;100923.41;7356563;19;19943;-67
2023/01/04 01:32:07;;;;;;;;;;;;;;;13.95;95.77;100918.94;7355359;19;19960;-67
2023/01/04 01:34:34;;;;;;;;;;;;;;;13.94;95.54;100925.22;7354832;19;20003;-66
2023/01/04 01:37:01;;;;;;;;;;;;;;;13.94;95.66;100912.00;7354482;19;19922;-67
2023/01/04 01:39:29;;;;;;;;;;;;;;;13.95;95.84;100911.00;7354953;19;19923;-68
2023/01/04 01:41:56;;;;;;;;;;;;;;;13.95;95.95;100920.75;7356142;19;19922;-68
2023/01/04 01:44:26;;;;;;;;;;;;;;;13.93;95.81;100918.28;7355307;19;19919;-67
2023/01/04 01:46:53;;;;;;;;;;;;;;;13.95;95.65;100913.66;7355801;19;19986;-68
2023/01/04 01:49:21;;;;;;;;;;;;;;;13.96;95.73;100917.13;7356972;19;19923;-67
2023/01/04 01:51:48;;;;;;;;;;;;;;;13.95;95.79;100924.22;7350229;19;20275;-67
2023/01/04 01:54:19;;;;;;;;;;;;;;;13.96;95.97;100923.25;7357046;19;19939;-67
2023/01/04 01:56:49;;;;;;;;;;;;;;;13.96;95.97;100931.19;7357899;19;21636;-67
2023/01/04 01:59:17;;;;;;;;;;;;;;;13.95;96.14;100921.59;7355950;19;19994;-67
2023/01/04 02:01:44;;;;;;;;;;;;;;;13.97;96.51;100939.91;7353758;19;20653;-66
2023/01/04 02:04:13;;;;;;;;;;;;;;;13.97;96.26;100926.69;7355891;19;19922;-67
2023/01/04 02:06:42;;;;;;;;;;;;;;;13.95;96.30;100929.53;7350739;19;19918;-67
2023/01/04 02:09:10;;;;;;;;;;;;;;;13.95;96.54;100937.47;7355186;19;19926;-66
2023/01/04 02:11:37;;;;;;;;;;;;;;;13.95;96.39;100937.47;7351583;19;19919;-67
2023/01/04 02:16:43;;;;;;;;;;;;;;;13.94;96.82;100935.81;7355515;19;19929;-67
2023/01/04 02:19:10;;;;;;;;;;;;;;;13.97;96.68;100937.25;7355064;19;20329;-67
2023/01/04 02:21:47;;;;;;;;;;;;;;;13.98;96.83;100931.81;7350131;19;20156;-67
2023/01/04 02:24:23;;;;;;;;;;;;;;;13.97;96.49;100926.69;7354398;19;19954;-68
2023/01/04 02:27:00;;;;;;;;;;;;;;;13.98;96.16;100920.41;7354405;19;19957;-67
2023/01/04 02:29:27;;;;;;;;;;;;;;;13.98;95.98;100917.75;7352102;19;19915;-67
2023/01/04 02:31:57;;;;;;;;;;;;;;;13.97;95.96;100916.09;7353341;19;19923;-67
2023/01/04 02:34:31;;;;;;;;;;;;;;;13.97;96.07;100922.22;7354555;19;20340;-67
2023/01/04 02:37:07;;;;;;;;;;;;;;;13.97;96.10;100916.94;7352124;19;20272;-67
2023/01/04 02:39:42;;;;;;;;;;;;;;;13.97;95.73;100913.44;7354428;19;19964;-67
2023/01/04 02:42:14;;;;;;;;;;;;;;;13.97;95.76;100916.09;7353420;19;19943;-68
2023/01/04 02:47:16;;;;;;;;;;;;;;;14.01;95.69;100904.19;7354262;19;19923;-67
2023/01/04 02:52:13;;;;;;;;;;;;;;;14.02;95.36;100892.59;7346428;19;20009;-67
2023/01/04 02:54:42;;;;;;;;;;;;;;;14.06;95.86;100891.28;7354703;19;19996;-68
2023/01/04 02:57:13;;;;;;;;;;;;;;;14.06;95.06;100883.34;7352543;19;20179;-67
2023/01/04 02:59:49;;;;;;;;;;;;;;;14.10;95.37;100866.94;7353807;19;19927;-67
2023/01/04 03:07:23;;;;;;;;;;;;;;;14.04;95.66;100833.22;7352229;19;19927;-65
2023/01/04 03:09:54;;;;;;;;;;;;;;;14.06;95.70;100841.00;7352351;19;19947;-68
2023/01/04 03:14:59;;;;;;;;;;;;;;;14.03;96.37;100843.97;7352941;19;20353;-67
2023/01/04 03:17:30;;;;;;;;;;;;;;;14.00;96.64;100858.41;7353678;19;21278;-67
2023/01/04 03:19:59;;;;;;;;;;;;;;;13.98;97.08;100852.44;7353250;19;19922;-68
2023/01/04 03:37:47;;;;;;;;;;;;;;;14.01;98.17;100833.59;7352432;19;19918;-67
2023/01/04 03:50:28;;;;;;;;;;;;;;;14.03;98.80;100807.75;7355412;19;20039;-67
2023/01/04 03:52:58;;;;;;;;;;;;;;;14.06;99.09;100814.53;7359526;19;19994;-67
2023/01/04 03:55:28;;;;;;;;;;;;;;;14.07;98.91;100827.56;7359040;19;19936;-67
2023/01/04 03:57:56;;;;;;;;;;;;;;;14.08;98.98;100810.72;7361116;19;20329;-67
2023/01/04 04:00:23;;;;;;;;;;;;;;;14.09;98.83;100822.13;7359515;19;19923;-67
2023/01/04 04:02:50;;;;;;;;;;;;;;;14.08;98.84;100820.47;7357804;19;20507;-66
2023/01/04 04:10:20;;;;;;;;;;;;;;;14.07;99.38;100819.63;7356098;19;19926;-67
2023/01/04 04:12:47;;;;;;;;;;;;;;;14.04;99.24;100817.34;7358486;19;20317;-67
2023/01/04 04:15:14;;;;;;;;;;;;;;;14.04;99.42;100822.66;7358737;19;20436;-67
2023/01/04 04:17:41;;;;;;;;;;;;;;;14.05;99.62;100821.66;7359946;19;19950;-67
2023/01/04 04:20:11;;;;;;;;;;;;;;;14.05;99.81;100802.31;7356446;19;19962;-68
2023/01/04 04:22:38;;;;;;;;;;;;;;;14.06;100.00;100798.66;7355890;19;19978;-67
2023/01/04 04:25:06;;;;;;;;;;;;;;;14.05;100.00;100807.59;7359302;19;19923;-67
2023/01/04 04:27:33;;;;;;;;;;;;;;;14.00;100.00;100805.47;7352956;19;20563;-67
2023/01/04 04:30:01;;;;;;;;;;;;;;;14.02;100.00;100802.63;7358343;19;19988;-67
2023/01/04 04:32:28;;;;;;;;;;;;;;;14.01;100.00;100814.25;7355537;19;19919;-67
2023/01/04 04:34:55;;;;;;;;;;;;;;;14.00;100.00;100815.25;7356074;19;20352;-68
2023/01/04 04:37:24;;;;;;;;;;;;;;;14.00;100.00;100816.06;7353107;19;19997;-68
2023/01/04 04:39:51;;;;;;;;;;;;;;;14.00;100.00;100812.59;7358486;19;21565;-67
2023/01/04 04:42:18;;;;;;;;;;;;;;;13.98;100.00;100804.81;7357326;19;19915;-67
2023/01/04 04:44:45;;;;;;;;;;;;;;;13.95;100.00;100799.91;7358230;19;20570;-67
2023/01/04 04:47:12;;;;;;;;;;;;;;;13.95;100.00;100804.34;7357011;19;19937;-67
2023/01/04 04:49:39;;;;;;;;;;;;;;;13.95;100.00;100807.00;7356274;19;19976;-67
2023/01/04 04:52:07;;;;;;;;;;;;;;;13.96;100.00;100811.31;7350935;19;20309;-67
2023/01/04 04:54:34;;;;;;;;;;;;;;;13.94;100.00;100808.81;7355745;19;19968;-67
2023/01/04 04:57:01;;;;;;;;;;;;;;;13.93;100.00;100823.03;7357311;19;19943;-68
2023/01/04 04:59:28;;;;;;;;;;;;;;;13.91;100.00;100811.00;7358100;19;19993;-66
2023/01/04 05:01:55;;;;;;;;;;;;;;;13.91;100.00;100814.47;7357769;19;19944;-67
2023/01/04 05:04:23;;;;;;;;;;;;;;;13.91;100.00;100811.81;7358192;19;20018;-68
2023/01/04 05:06:51;;;;;;;;;;;;;;;13.94;100.00;100818.56;7355440;19;19937;-67
2023/01/04 05:09:19;;;;;;;;;;;;;;;13.93;100.00;100815.09;7349863;19;19915;-66
2023/01/04 05:14:16;;;;;;;;;;;;;;;13.94;100.00;100819.41;7358210;19;20734;-67
2023/01/04 05:16:44;;;;;;;;;;;;;;;13.97;100.00;100824.34;7359670;19;19925;-67
2023/01/04 05:19:11;;;;;;;;;;;;;;;13.98;100.00;100823.34;7356408;19;20614;-67
2023/01/04 05:21:39;;;;;;;;;;;;;;;13.97;100.00;100815.56;7353877;19;19922;-66
2023/01/04 05:24:06;;;;;;;;;;;;;;;13.98;100.00;100819.88;7359514;19;20309;-66
2023/01/04 05:26:33;;;;;;;;;;;;;;;13.98;100.00;100828.63;7358349;19;19926;-67
2023/01/04 05:29:00;;;;;;;;;;;;;;;13.99;100.00;100821.53;7357888;19;19927;-66
2023/01/04 05:31:28;;;;;;;;;;;;;;;14.00;100.00;100828.47;7356806;19;19954;-67
2023/01/04 05:33:55;;;;;;;;;;;;;;;13.99;100.00;100822.34;7355922;19;19938;-67
2023/01/04 05:36:22;;;;;;;;;;;;;;;14.00;100.00;100828.47;7352831;19;19961;-67
2023/01/04 05:38:49;;;;;;;;;;;;;;;14.01;100.00;100822.19;7353896;19;19927;-67
2023/01/04 05:43:46;;;;;;;;;;;;;;;14.02;100.00;100821.16;7353933;19;20442;-67
2023/01/04 05:46:13;;;;;;;;;;;;;;;14.02;100.00;100818.50;7355563;19;19943;-68
2023/01/04 05:48:41;;;;;;;;;;;;;;;14.02;100.00;100816.69;7354637;19;20272;-67
2023/01/04 05:51:08;;;;;;;;;;;;;;;14.03;100.00;100817.53;7353117;19;19976;-67
2023/01/04 05:53:35;;;;;;;;;;;;;;;14.05;100.00;100816.38;7355463;19;20124;-70
2023/01/04 05:56:02;;;;;;;;;;;;;;;14.04;100.00;100814.72;7355238;19;19918;-66
2023/01/04 05:58:29;;;;;;;;;;;;;;;14.05;100.00;100821.66;7354188;19;19929;-67
2023/01/04 06:00:56;;;;;;;;;;;;;;;14.07;100.00;100824.09;7356939;19;19940;-67
2023/01/04 06:03:23;;;;;;;;;;;;;;;14.05;100.00;100818.19;7356335;19;19923;-67
2023/01/04 06:05:51;;;;;;;;;;;;;;;14.01;100.00;100817.72;7350045;19;20008;-67
2023/01/04 06:08:18;;;;;;;;;;;;;;;14.02;100.00;100818.50;7354976;19;20580;-67
2023/01/04 06:10:51;;;;;;;;;;;;;;;14.02;100.00;100821.16;7353491;19;19921;-67
2023/01/04 06:13:19;;;;;;;;;;;;;;;14.02;100.00;100826.44;7354967;19;20098;-68
2023/01/04 06:15:46;;;;;;;;;;;;;;;14.04;100.00;100820.00;7354511;19;19922;-66
2023/01/04 06:18:13;;;;;;;;;;;;;;;14.05;100.00;100818.19;7356348;19;20633;-68
2023/01/04 06:20:41;;;;;;;;;;;;;;;14.05;100.00;100810.25;7353715;19;20535;-67
2023/01/04 06:23:08;;;;;;;;;;;;;;;14.08;100.00;100817.81;7353940;19;19927;-67
2023/01/04 06:25:36;;;;;;;;;;;;;;;14.06;100.00;100817.19;7352818;19;19927;-67
2023/01/04 06:28:03;;;;;;;;;;;;;;;14.07;100.00;100818.81;7354493;19;20303;-67
2023/01/04 06:30:30;;;;;;;;;;;;;;;14.07;100.00;100817.00;7352441;19;19923;-68
2023/01/04 06:32:57;;;;;;;;;;;;;;;14.09;100.00;100819.47;7352342;19;19919;-67
2023/01/04 06:35:24;;;;;;;;;;;;;;;14.11;100.00;100817.47;7349443;19;20038;-67
2023/01/04 06:37:51;;;;;;;;;;;;;;;14.10;100.00;100821.13;7355745;19;19951;-67
2023/01/04 06:40:18;;;;;;;;;;;;;;;14.14;100.00;100817.13;7351487;19;21299;-67
2023/01/04 06:42:46;;;;;;;;;;;;;;;14.17;100.00;100818.59;7353463;19;19940;-68
2023/01/04 06:45:13;;;;;;;;;;;;;;;14.18;100.00;100828.16;7353908;19;19915;-67
2023/01/04 06:47:40;;;;;;;;;;;;;;;14.18;100.00;100817.56;7355534;19;19972;-67
2023/01/04 06:50:08;;;;;;;;;;;;;;;14.20;100.00;100827.00;7350349;19;19918;-66
2023/01/04 06:52:35;;;;;;;;;;;;;;;14.20;100.00;100823.53;7351150;19;19923;-67
2023/01/04 06:55:02;;;;;;;;;;;;;;;14.19;100.00;100835.94;7349927;19;19918;-67
2023/01/04 06:57:29;;;;;;;;;;;;;;;14.20;100.00;100837.59;7354761;19;19923;-67
2023/01/04 06:59:56;;;;;;;;;;;;;;;14.18;100.00;100821.06;7353682;19;19931;-67
2023/01/04 07:02:24;;;;;;;;;;;;;;;14.21;100.00;100833.94;7353186;19;19954;-67
2023/01/04 07:04:51;;;;;;;;;;;;;;;14.23;100.00;100839.03;7354995;19;19937;-67
2023/01/04 07:07:18;;;;;;;;;;;;;;;14.22;100.00;100838.22;7352153;19;19922;-66
2023/01/04 07:09:45;;;;;;;;;;;;;;;14.22;100.00;100853.31;7352368;19;19934;-67
2023/01/04 07:12:12;;;;;;;;;;;;;;;14.24;100.00;100861.88;7351583;19;20002;-69
2023/01/04 07:14:39;;;;;;;;;;;;;;;14.23;100.00;100862.88;7351235;19;19931;-67
2023/01/04 07:17:06;;;;;;;;;;;;;;;14.22;100.00;100855.94;7360292;19;19923;-68
2023/01/04 07:19:34;;;;;;;;;;;;;;;14.23;100.00;100862.88;7359254;19;19914;-67
2023/01/04 07:22:01;;;;;;;;;;;;;;;14.24;100.00;100861.88;7358266;19;19922;-68
2023/01/04 07:24:28;;;;;;;;;;;;;;;14.24;100.00;100859.22;7360873;19;19922;-67
2023/01/04 07:26:58;;;;;;;;;;;;;;;14.22;100.00;100863.88;7360619;19;19923;-66
2023/01/04 07:29:26;;;;;;;;;;;;;;;14.20;100.00;100872.00;7359410;19;20442;-67
2023/01/04 07:31:53;;;;;;;;;;;;;;;14.18;100.00;100881.91;7357998;19;19919;-67
2023/01/04 07:34:22;;;;;;;;;;;;;;;14.19;100.00;100864.22;7357085;19;19999;-67
2023/01/04 07:36:50;;;;;;;;;;;;;;;14.17;100.00;100869.69;7355804;19;19943;-67
2023/01/04 07:39:17;;;;;;;;;;;;;;;14.17;100.00;100874.97;7357803;19;19925;-67
2023/01/04 07:41:45;;;;;;;;;;;;;;;14.18;100.00;100875.81;7357569;19;19938;-68
2023/01/04 07:44:12;;;;;;;;;;;;;;;14.20;100.00;100885.22;7360723;19;20523;-66
2023/01/04 07:46:40;;;;;;;;;;;;;;;14.21;100.00;100892.19;7360793;19;19919;-67
2023/01/04 07:49:10;;;;;;;;;;;;;;;14.19;100.00;100888.03;7360977;19;19911;-67
2023/01/04 07:51:44;;;;;;;;;;;;;;;14.22;100.00;100893.81;7354642;19;20668;-67
2023/01/04 07:54:11;;;;;;;;;;;;;;;14.25;100.00;100887.34;7358146;19;19951;-67
2023/01/04 07:56:38;;;;;;;;;;;;;;;14.25;100.00;100892.66;7359635;19;19923;-67
2023/01/04 07:59:06;;;;;;;;;;;;;;;14.23;100.00;100898.09;7361144;19;19925;-67
2023/01/04 08:01:34;;;;;;;;;;;;;;;14.23;100.00;100907.88;7360198;19;19930;-67
2023/01/04 08:04:01;;;;;;;;;;;;;;;14.22;100.00;100903.59;7359864;19;20650;-67
2023/01/04 08:06:28;;;;;;;;;;;;;;;14.19;100.00;100901.28;7356849;19;19923;-66
2023/01/04 08:08:57;;;;;;;;;;;;;;;14.20;100.00;100898.47;7357259;19;20092;-66
2023/01/04 08:11:24;;;;;;;;;;;;;;;14.20;100.00;100893.16;7356605;19;19921;-66
2023/01/04 08:13:51;;;;;;;;;;;;;;;14.21;100.00;100894.81;7354986;19;19998;-67
2023/01/04 08:16:21;;;;;;;;;;;;;;;14.23;100.00;100902.56;7358991;19;19951;-66
2023/01/04 08:18:52;;;;;;;;;;;;;;;14.19;100.00;100902.09;7357945;19;19960;-68
2023/01/04 08:21:19;;;;;;;;;;;;;;;14.19;100.00;100907.41;7353873;19;19931;-67
2023/01/04 08:23:46;;;;;;;;;;;;;;;14.20;100.00;100901.09;7355643;19;19955;-68
2023/01/04 08:26:15;;;;;;;;;;;;;;;14.20;100.00;100908.22;7359227;19;20610;-68
2023/01/04 08:28:42;;;;;;;;;;;;;;;14.19;100.00;100906.56;7354984;19;19930;-67
2023/01/04 08:31:13;;;;;;;;;;;;;;;14.18;100.00;100912.84;7355481;19;19934;-68
2023/01/04 08:33:41;;;;;;;;;;;;;;;14.20;100.00;100917.00;7356355;19;19962;-68
2023/01/04 08:36:11;;;;;;;;;;;;;;;14.22;100.00;100919.47;7352070;19;20574;-67
2023/01/04 08:38:38;;;;;;;;;;;;;;;14.24;100.00;100917.47;7359072;19;20032;-67
2023/01/04 08:41:25;;;;;;;;;;;;;;;14.26;100.00;100921.59;7356173;19;20769;-67
2023/01/04 08:44:12;;;;;;;;;;;;;;;14.29;100.00;100933.63;7358417;19;19923;-67
2023/01/04 08:46:39;;;;;;;;;;;;;;;14.33;100.00;100940.22;7358922;19;19914;-68
2023/01/04 08:49:07;;;;;;;;;;;;;;;14.34;100.00;100940.06;7357941;19;19922;-70
2023/01/04 08:51:34;;;;;;;;;;;;;;;14.36;100.00;100942.53;7352551;19;19943;-68
2023/01/04 08:54:01;;;;;;;;;;;;;;;14.38;99.73;100943.22;7354174;19;19930;-67
2023/01/04 08:56:28;;;;;;;;;;;;;;;14.38;99.46;100951.16;7358500;19;19926;-68
2023/01/04 08:58:55;;;;;;;;;;;;;;;14.38;98.85;100941.38;7357381;19;20342;-66
2023/01/04 09:01:24;;;;;;;;;;;;;;;14.39;98.39;100944.84;7357147;19;19923;-67
2023/01/04 09:03:51;;;;;;;;;;;;;;;14.41;97.81;100950.81;7356503;19;20462;-67
2023/01/04 09:06:18;;;;;;;;;;;;;;;14.42;97.50;100941.88;7352833;19;19939;-67
2023/01/04 09:08:46;;;;;;;;;;;;;;;14.44;97.18;100939.88;7357418;19;21770;-68
2023/01/04 09:11:15;;;;;;;;;;;;;;;14.47;97.43;100948.31;7354841;19;19948;-68
2023/01/04 09:13:42;;;;;;;;;;;;;;;14.49;97.01;100953.41;7354706;19;20346;-67
2023/01/04 09:16:11;;;;;;;;;;;;;;;14.51;96.54;100944.31;7357250;19;19966;-67
2023/01/04 09:18:39;;;;;;;;;;;;;;;14.51;96.03;100954.91;7356671;19;20309;-68
2023/01/04 09:21:08;;;;;;;;;;;;;;;14.53;95.75;100962.63;7352353;19;19930;-67
2023/01/04 09:23:35;;;;;;;;;;;;;;;14.53;95.59;100957.34;7354825;19;19923;-68
2023/01/04 09:26:05;;;;;;;;;;;;;;;14.54;95.49;100959.81;7356686;19;20222;-67
2023/01/04 09:28:35;;;;;;;;;;;;;;;14.55;95.23;100955.34;7355379;19;19923;-67
2023/01/04 09:31:05;;;;;;;;;;;;;;;14.57;95.20;100957.84;7356125;19;19927;-68
2023/01/04 09:33:33;;;;;;;;;;;;;;;14.61;95.11;100949.38;7355192;19;19923;-67
2023/01/04 09:36:20;;;;;;;;;;;;;;;14.64;95.15;100956.13;7348573;19;20388;-67
2023/01/04 09:38:48;;;;;;;;;;;;;;;14.66;95.27;100954.13;7352889;19;20006;-68
2023/01/04 09:41:15;;;;;;;;;;;;;;;14.65;94.73;100960.41;7354053;19;20325;-67
2023/01/04 09:43:45;;;;;;;;;;;;;;;14.69;94.09;100961.72;7355992;19;19911;-67
2023/01/04 09:46:19;;;;;;;;;;;;;;;14.69;93.59;100965.19;7354999;19;19973;-67
2023/01/04 09:48:48;;;;;;;;;;;;;;;14.70;93.61;100966.84;7353965;19;19921;-67
2023/01/04 09:51:16;;;;;;;;;;;;;;;14.72;94.20;100972.81;7352045;19;19918;-67
2023/01/04 09:53:47;;;;;;;;;;;;;;;14.71;93.93;100979.09;7353778;19;20183;-69
2023/01/04 09:56:13;;;;;;;;;;;;;;;14.70;93.31;100976.59;7356347;19;19926;-67
2023/01/04 09:58:41;;;;;;;;;;;;;;;14.71;93.20;100979.09;7354025;19;20312;-68
2023/01/04 10:01:12;;;;;;;;;;;;;;;14.70;92.86;100985.38;7355521;19;19949;-70
2023/01/04 10:03:44;;;;;;;;;;;;;;;14.70;92.81;100989.84;7353444;19;20306;-68
2023/01/04 10:06:12;;;;;;;;;;;;;;;14.71;93.75;100979.09;7353036;19;19923;-68
2023/01/04 10:08:40;;;;;;;;;;;;;;;14.73;93.98;100986.88;7355905;19;19931;-68
2023/01/04 10:11:11;;;;;;;;;;;;;;;14.73;94.35;100985.03;7353518;19;19919;-68
2023/01/04 10:13:41;;;;;;;;;;;;;;;14.74;94.07;100988.50;7351468;19;20379;-68
2023/01/04 10:16:11;;;;;;;;;;;;;;;14.74;93.90;100983.19;7356203;19;19941;-67
2023/01/04 10:18:46;;;;;;;;;;;;;;;14.74;93.21;100976.06;7355868;19;19922;-68
2023/01/04 10:21:34;;;;;;;;;;;;;;;14.77;92.85;100982.88;7349445;19;19923;-68
2023/01/04 10:24:04;;;;;;;;;;;;;;;14.79;92.63;100983.50;7352304;19;19930;-67
2023/01/04 10:26:33;;;;;;;;;;;;;;;14.81;92.68;100984.16;7354174;19;19914;-68
2023/01/04 10:29:03;;;;;;;;;;;;;;;14.80;92.51;100983.31;7354816;19;19966;-68
2023/01/04 10:31:34;;;;;;;;;;;;;;;14.80;92.74;100993.09;7355141;19;19940;-67
2023/01/04 10:34:10;;;;;;;;;;;;;;;14.79;93.52;100986.97;7351203;19;19926;-68
2023/01/04 10:36:44;;;;;;;;;;;;;;;14.76;93.68;100983.84;7351954;19;19932;-67
2023/01/04 10:39:14;;;;;;;;;;;;;;;14.71;93.96;100981.75;7354181;19;20111;-67
2023/01/04 10:41:44;;;;;;;;;;;;;;;14.69;94.40;100977.59;7352773;19;19942;-67
2023/01/04 10:44:14;;;;;;;;;;;;;;;14.67;94.51;100980.44;7352754;19;19922;-67
2023/01/04 10:46:43;;;;;;;;;;;;;;;14.68;94.24;100975.97;7354213;19;19968;-68
2023/01/04 10:49:15;;;;;;;;;;;;;;;14.66;94.37;100970.03;7353776;19;19919;-68
2023/01/04 10:51:45;;;;;;;;;;;;;;;14.66;94.14;100973.50;7347434;19;20296;-68
2023/01/04 10:54:18;;;;;;;;;;;;;;;14.68;93.83;100979.44;7349505;19;20305;-68
2023/01/04 10:56:50;;;;;;;;;;;;;;;14.69;93.40;100989.03;7352248;19;19923;-68
2023/01/04 10:59:21;;;;;;;;;;;;;;;14.75;93.19;100971.59;7354755;19;19918;-67
2023/01/04 11:01:48;;;;;;;;;;;;;;;14.79;93.35;100980.84;7354460;19;20275;-67
2023/01/04 11:04:19;;;;;;;;;;;;;;;14.83;92.93;100975.00;7356055;19;20593;-69
2023/01/04 11:06:52;;;;;;;;;;;;;;;14.83;91.92;100969.72;7349164;19;20716;-67
2023/01/04 11:09:22;;;;;;;;;;;;;;;14.85;91.59;100978.31;7355407;19;20514;-68
2023/01/04 11:11:54;;;;;;;;;;;;;;;14.85;90.82;100964.25;7350463;19;20674;-68
2023/01/04 11:14:23;;;;;;;;;;;;;;;14.86;90.22;100960.59;7351763;19;20269;-67
2023/01/04 11:16:51;;;;;;;;;;;;;;;14.89;90.17;100957.59;7351717;19;19923;-68
2023/01/04 11:19:18;;;;;;;;;;;;;;;14.92;89.61;100957.25;7353701;19;20065;-67
2023/01/04 11:21:49;;;;;;;;;;;;;;;14.93;89.25;100965.00;7350425;19;19955;-68
2023/01/04 11:24:17;;;;;;;;;;;;;;;14.92;88.41;100960.72;7351326;19;20257;-67
2023/01/04 11:27:01;;;;;;;;;;;;;;;14.93;88.38;100965.00;7352388;19;19934;-67
2023/01/04 11:29:31;;;;;;;;;;;;;;;14.95;88.21;100959.53;7353348;19;19919;-68
2023/01/04 11:32:05;;;;;;;;;;;;;;;14.95;88.02;100962.19;7353674;19;19918;-67
2023/01/04 11:34:36;;;;;;;;;;;;;;;14.96;88.12;100958.53;7347852;19;19983;-68
2023/01/04 11:37:03;;;;;;;;;;;;;;;14.97;88.25;100965.50;7349163;19;19977;-68
2023/01/04 11:39:30;;;;;;;;;;;;;;;14.97;87.77;100961.03;7351665;19;19927;-68
2023/01/04 11:42:03;;;;;;;;;;;;;;;15.00;87.84;100967.78;7352038;19;19965;-67
2023/01/04 11:44:31;;;;;;;;;;;;;;;15.02;88.00;100970.25;7354062;19;20026;-68
2023/01/04 11:47:01;;;;;;;;;;;;;;;15.03;87.66;100971.91;7352478;19;19961;-68
2023/01/04 11:49:32;;;;;;;;;;;;;;;15.04;86.86;100970.88;7353044;19;19947;-67
2023/01/04 11:52:01;;;;;;;;;;;;;;;15.07;86.16;100976.66;7347529;19;19926;-67
2023/01/04 11:54:30;;;;;;;;;;;;;;;15.10;85.73;100959.56;7351614;19;19915;-67
2023/01/04 11:57:00;;;;;;;;;;;;;;;15.10;85.04;100948.97;7350411;19;19922;-67
2023/01/04 11:59:36;;;;;;;;;;;;;;;15.13;85.32;100949.47;7354125;19;19962;-68
2023/01/04 12:02:06;;;;;;;;;;;;;;;15.15;85.14;100939.47;7351871;19;19923;-67
2023/01/04 12:04:34;;;;;;;;;;;;;;;15.15;85.23;100946.59;7358044;19;20064;-67
2023/01/04 12:07:01;;;;;;;;;;;;;;;15.18;84.93;100951.56;7356639;19;19934;-67
2023/01/04 12:09:29;;;;;;;;;;;;;;;15.21;84.68;100943.25;7360099;19;20162;-68
2023/01/04 12:11:58;;;;;;;;;;;;;;;15.25;83.57;100953.31;7359548;19;19931;-67
2023/01/04 12:14:28;;;;;;;;;;;;;;;15.29;83.22;100949.28;7355082;19;20585;-68
2023/01/04 12:16:55;;;;;;;;;;;;;;;15.33;82.70;100940.00;7357763;19;19926;-67
2023/01/04 12:19:24;;;;;;;;;;;;;;;15.32;82.31;100948.94;7360006;19;19922;-69
2023/01/04 12:21:53;;;;;;;;;;;;;;;15.33;81.84;100957.72;7352690;19;19950;-68
2023/01/04 12:24:23;;;;;;;;;;;;;;;15.33;81.96;100973.63;7356676;19;19985;-67
2023/01/04 12:26:51;;;;;;;;;;;;;;;15.31;80.74;100976.44;7357900;19;19998;-68
2023/01/04 12:29:22;;;;;;;;;;;;;;;15.35;80.21;100974.25;7356395;19;19922;-68
2023/01/04 12:31:53;;;;;;;;;;;;;;;15.37;80.75;100975.75;7358345;19;19985;-68
2023/01/04 12:34:21;;;;;;;;;;;;;;;15.36;79.86;100975.91;7354663;19;19918;-68
2023/01/04 12:36:50;;;;;;;;;;;;;;;15.36;79.33;100976.72;7356266;19;19923;-67
2023/01/04 12:39:21;;;;;;;;;;;;;;;15.36;79.15;100973.25;7357635;19;20024;-68
2023/01/04 12:44:25;;;;;;;;;;;;;;;15.43;77.92;100962.75;7356945;19;20202;-68
2023/01/04 12:49:22;;;;;;;;;;;;;;;15.40;77.44;100970.06;7357604;19;20018;-67
2023/01/04 12:51:57;;;;;;;;;;;;;;;15.40;77.62;100961.28;7355801;19;19915;-67
2023/01/04 12:54:47;;;;;;;;;;;;;;;15.36;76.86;100965.31;7354646;19;19918;-67
2023/01/04 12:57:16;;;;;;;;;;;;;;;15.36;77.57;100962.66;7358422;19;19918;-68
2023/01/04 12:59:46;;;;;;;;;;;;;;;15.35;79.21;100969.78;7356212;19;20233;-68
2023/01/04 13:02:15;;;;;;;;;;;;;;;15.33;77.53;100968.34;7354453;19;20345;-67
2023/01/04 13:04:42;;;;;;;;;;;;;;;15.29;77.33;100964.38;7358177;19;20540;-68
2023/01/04 13:07:13;;;;;;;;;;;;;;;15.30;78.54;100971.31;7354874;19;19919;-68
2023/01/04 13:09:42;;;;;;;;;;;;;;;15.29;79.06;100973.16;7357095;19;19923;-68
2023/01/04 13:12:19;;;;;;;;;;;;;;;15.28;78.66;100954.78;7355239;19;19943;-68
2023/01/04 13:14:48;;;;;;;;;;;;;;;15.29;78.59;100967.00;7352500;19;20270;-68
2023/01/04 13:17:16;;;;;;;;;;;;;;;15.27;77.88;100961.91;7357771;19;19962;-68
2023/01/04 13:19:44;;;;;;;;;;;;;;;15.27;77.84;100955.78;7355012;19;20400;-67
2023/01/04 13:22:14;;;;;;;;;;;;;;;15.24;77.23;100958.78;7353635;19;19943;-68
2023/01/04 13:24:43;;;;;;;;;;;;;;;15.24;78.22;100962.25;7357608;19;19934;-68
2023/01/04 13:27:13;;;;;;;;;;;;;;;15.26;78.19;100965.56;7357473;19;19956;-68
2023/01/04 13:29:40;;;;;;;;;;;;;;;15.25;77.17;100953.31;7354821;19;19930;-67
2023/01/04 13:32:10;;;;;;;;;;;;;;;15.23;77.28;100971.25;7356037;19;19922;-67
2023/01/04 13:34:39;;;;;;;;;;;;;;;15.21;78.45;100965.28;7355145;19;19923;-67
2023/01/04 13:37:09;;;;;;;;;;;;;;;15.18;78.21;100957.69;7355509;19;20360;-67